createdAt,value
2022-09-16T00:01:32.950Z,99.50
2022-09-16T00:04:01.903Z,99.50
2022-09-16T00:06:32.636Z,99.50
2022-09-16T00:09:02.369Z,99.50
2022-09-16T00:11:37.264Z,99.50
2022-09-16T00:14:06.511Z,99.30
2022-09-16T00:16:35.632Z,99.40
2022-09-16T00:19:04.722Z,99.40
2022-09-16T00:21:33.912Z,99.30
2022-09-16T00:24:03.176Z,99.20
2022-09-16T00:26:32.236Z,98.80
2022-09-16T00:29:01.182Z,98.60
2022-09-16T00:31:30.167Z,98.70
2022-09-16T00:33:59.085Z,98.50
2022-09-16T00:36:27.982Z,98.40
2022-09-16T00:38:57.521Z,98.20
2022-09-16T00:41:35.523Z,97.90
2022-09-16T00:44:25.715Z,97.60
2022-09-16T00:46:55.570Z,97.40
2022-09-16T00:49:31.677Z,97.20
2022-09-16T00:52:07.113Z,97.00
2022-09-16T00:54:39.072Z,96.70
2022-09-16T00:57:10.113Z,96.60
2022-09-16T00:59:47.608Z,96.40
2022-09-16T01:02:20.611Z,96.20
2022-09-16T01:05:13.367Z,96.20
2022-09-16T01:07:53.364Z,96.50
2022-09-16T01:10:27.476Z,96.00
2022-09-16T01:13:07.942Z,95.80
2022-09-16T01:15:54.110Z,95.70
2022-09-16T01:18:56.414Z,95.40
2022-09-16T01:22:09.749Z,95.30
2022-09-16T01:24:54.023Z,94.90
2022-09-16T01:27:55.620Z,94.70
2022-09-16T01:30:48.212Z,94.80
2022-09-16T01:33:32.892Z,94.60
2022-09-16T01:36:15.827Z,94.60
2022-09-16T01:38:55.485Z,94.50
2022-09-16T01:41:36.893Z,94.30
2022-09-16T01:44:12.990Z,94.10
2022-09-16T01:47:06.384Z,93.90
2022-09-16T01:49:57.213Z,93.70
2022-09-16T01:53:04.457Z,93.70
2022-09-16T01:55:44.218Z,93.20
2022-09-16T01:58:24.353Z,93.30
2022-09-16T02:00:58.043Z,92.90
2022-09-16T02:03:33.060Z,93.00
2022-09-16T02:06:09.952Z,92.60
2022-09-16T02:08:48.233Z,92.50
2022-09-16T02:11:19.428Z,92.30
2022-09-16T02:14:09.845Z,92.20
2022-09-16T02:16:54.420Z,92.10
2022-09-16T02:19:30.021Z,91.80
2022-09-16T02:22:00.737Z,91.80
2022-09-16T02:24:32.115Z,91.60
2022-09-16T02:27:05.148Z,91.40
2022-09-16T02:30:03.150Z,91.20
2022-09-16T02:32:38.561Z,91.30
2022-09-16T02:35:10.229Z,91.40
2022-09-16T02:37:53.173Z,91.00
2022-09-16T02:40:29.749Z,90.90
2022-09-16T02:42:59.938Z,90.80
2022-09-16T02:46:04.960Z,90.90
2022-09-16T02:48:57.560Z,90.40
2022-09-16T02:51:36.452Z,90.20
2022-09-16T02:54:26.039Z,90.60
2022-09-16T02:56:57.616Z,90.50
2022-09-16T02:59:27.039Z,90.50
2022-09-16T03:01:56.465Z,90.70
2022-09-16T03:04:25.488Z,90.90
2022-09-16T03:06:54.388Z,90.60
2022-09-16T03:09:26.316Z,90.10
2022-09-16T03:12:06.665Z,90.20
2022-09-16T03:14:44.518Z,90.70
2022-09-16T03:17:53.697Z,90.60
2022-09-16T03:20:47.040Z,90.30
2022-09-16T03:23:39.058Z,90.30
2022-09-16T03:26:19.664Z,88.80
2022-09-16T03:28:56.016Z,90.10
2022-09-16T03:31:41.019Z,90.10
2022-09-16T03:34:19.989Z,89.90
2022-09-16T03:36:58.211Z,90.00
2022-09-16T03:39:27.066Z,90.10
2022-09-16T03:41:56.741Z,89.00
2022-09-16T03:44:39.584Z,88.50
2022-09-16T03:47:09.653Z,88.70
2022-09-16T03:49:39.169Z,88.80
2022-09-16T03:52:08.799Z,87.40
2022-09-16T03:54:38.805Z,88.10
2022-09-16T03:57:08.178Z,88.10
2022-09-16T03:59:37.038Z,87.80
2022-09-16T04:02:05.883Z,87.70
2022-09-16T04:04:34.835Z,84.70
2022-09-16T04:07:06.704Z,85.80
2022-09-16T04:09:35.605Z,86.40
2022-09-16T04:12:04.843Z,86.50
2022-09-16T04:14:34.033Z,85.50
2022-09-16T04:17:03.586Z,85.90
2022-09-16T04:19:32.591Z,85.70
2022-09-16T04:22:01.486Z,85.00
2022-09-16T04:24:30.807Z,85.30
2022-09-16T04:26:59.851Z,85.60
2022-09-16T04:29:28.963Z,85.50
2022-09-16T04:31:57.890Z,85.10
2022-09-16T04:34:26.874Z,84.80
2022-09-16T04:36:56.032Z,85.30
2022-09-16T04:39:24.903Z,85.20
2022-09-16T04:41:53.757Z,84.70
2022-09-16T04:44:22.760Z,84.50
2022-09-16T04:46:51.606Z,84.40
2022-09-16T04:49:20.680Z,84.60
2022-09-16T04:51:49.719Z,84.00
2022-09-16T04:54:18.624Z,83.50
2022-09-16T04:56:47.996Z,84.00
2022-09-16T04:59:16.950Z,83.90
2022-09-16T05:01:47.015Z,83.30
2022-09-16T05:04:16.041Z,83.10
2022-09-16T05:06:45.794Z,83.00
2022-09-16T05:09:14.933Z,84.20
2022-09-16T05:11:43.818Z,83.00
2022-09-16T05:14:16.956Z,83.80
2022-09-16T05:16:46.924Z,84.00
2022-09-16T05:19:17.265Z,83.60
2022-09-16T05:21:46.227Z,83.60
2022-09-16T05:24:16.325Z,83.70
2022-09-16T05:26:45.862Z,83.10
2022-09-16T05:29:17.099Z,82.70
2022-09-16T05:31:50.184Z,82.60
2022-09-16T05:34:22.686Z,82.30
2022-09-16T05:36:55.037Z,82.00
2022-09-16T05:39:25.925Z,82.10
2022-09-16T05:42:00.162Z,81.80
2022-09-16T05:44:30.356Z,81.50
2022-09-16T05:46:59.318Z,81.80
2022-09-16T05:49:28.232Z,81.90
2022-09-16T05:51:57.123Z,81.50
2022-09-16T05:54:26.375Z,81.80
2022-09-16T05:56:55.321Z,82.00
2022-09-16T05:59:25.249Z,81.80
2022-09-16T06:01:54.361Z,81.70
2022-09-16T06:04:26.107Z,81.20
2022-09-16T06:06:55.252Z,81.60
2022-09-16T06:09:26.221Z,80.80
2022-09-16T06:12:01.713Z,80.30
2022-09-16T06:14:31.455Z,80.60
2022-09-16T06:17:00.446Z,80.20
2022-09-16T06:19:29.382Z,81.00
2022-09-16T06:21:58.261Z,81.30
2022-09-16T06:24:27.335Z,80.90
2022-09-16T06:26:56.248Z,81.00
2022-09-16T06:29:25.232Z,80.90
2022-09-16T06:31:54.140Z,81.20
2022-09-16T06:34:23.148Z,80.50
2022-09-16T06:36:52.097Z,80.70
2022-09-16T06:39:20.928Z,80.70
2022-09-16T06:41:50.278Z,80.10
2022-09-16T06:44:19.197Z,80.60
2022-09-16T06:46:48.063Z,80.20
2022-09-16T06:49:16.925Z,79.80
2022-09-16T06:51:45.792Z,79.40
2022-09-16T06:54:14.703Z,79.00
2022-09-16T06:56:43.652Z,79.80
2022-09-16T06:59:15.433Z,79.60
2022-09-16T07:01:44.418Z,79.00
2022-09-16T07:04:14.942Z,77.40
2022-09-16T07:07:09.119Z,78.60
2022-09-16T07:09:33.443Z,79.00
2022-09-16T07:12:03.329Z,78.80
2022-09-16T07:14:35.520Z,78.90
2022-09-16T07:17:04.709Z,78.70
2022-09-16T07:19:33.689Z,78.30
2022-09-16T07:22:02.596Z,78.60
2022-09-16T07:24:35.229Z,78.60
2022-09-16T07:27:04.169Z,78.70
2022-09-16T07:29:33.499Z,78.70
2022-09-16T07:32:02.400Z,78.60
2022-09-16T07:34:32.119Z,78.60
2022-09-16T07:37:01.180Z,79.30
2022-09-16T07:39:30.464Z,79.40
2022-09-16T07:42:03.858Z,79.00
2022-09-16T07:44:34.817Z,78.80
2022-09-16T07:47:04.252Z,79.00
2022-09-16T07:49:33.166Z,79.20
2022-09-16T07:52:02.085Z,78.60
2022-09-16T07:54:31.085Z,78.70
2022-09-16T07:57:06.075Z,78.80
2022-09-16T07:59:34.908Z,78.80
2022-09-16T08:02:04.469Z,78.70
2022-09-16T08:04:33.640Z,78.90
2022-09-16T08:07:02.540Z,78.90
2022-09-16T08:09:38.696Z,78.90
2022-09-16T08:12:12.004Z,78.90
2022-09-16T08:14:40.987Z,78.80
2022-09-16T08:17:10.031Z,78.90
2022-09-16T08:19:40.439Z,78.90
2022-09-16T08:22:09.456Z,79.00
2022-09-16T08:24:38.380Z,78.80
2022-09-16T08:27:07.374Z,79.70
2022-09-16T08:29:36.322Z,79.00
2022-09-16T08:32:05.367Z,79.40
2022-09-16T08:34:34.460Z,79.30
2022-09-16T08:37:03.345Z,79.80
2022-09-16T08:39:32.568Z,79.60
2022-09-16T08:42:24.860Z,79.60
2022-09-16T08:45:11.193Z,79.40
2022-09-16T08:48:09.271Z,79.20
2022-09-16T08:50:46.172Z,79.40
2022-09-16T08:53:21.695Z,79.70
2022-09-16T08:55:55.170Z,79.80
2022-09-16T08:58:42.930Z,79.80
2022-09-16T09:02:09.727Z,79.40
2022-09-16T09:04:39.043Z,76.90
2022-09-16T09:07:08.987Z,78.10
2022-09-16T09:09:59.324Z,81.30
2022-09-16T09:12:44.192Z,83.40
2022-09-16T09:15:28.108Z,84.70
2022-09-16T09:18:15.740Z,86.00
2022-09-16T09:21:01.012Z,86.60
2022-09-16T09:24:08.283Z,86.60
2022-09-16T09:26:46.400Z,86.60
2022-09-16T09:29:35.061Z,86.50
2022-09-16T09:32:26.269Z,86.20
2022-09-16T09:34:55.149Z,86.60
2022-09-16T09:37:51.343Z,87.20
2022-09-16T09:40:46.561Z,86.90
2022-09-16T09:43:59.947Z,85.30
2022-09-16T09:46:38.017Z,84.30
2022-09-16T09:49:06.980Z,85.70
2022-09-16T09:51:39.926Z,87.50
2022-09-16T09:54:38.631Z,88.30
2022-09-16T09:57:13.544Z,89.10
2022-09-16T10:00:11.601Z,89.40
2022-09-16T10:02:47.485Z,89.30
2022-09-16T10:05:30.297Z,89.30
2022-09-16T10:08:25.208Z,89.70
2022-09-16T10:11:00.723Z,89.90
2022-09-16T10:13:31.627Z,89.60
2022-09-16T10:16:16.037Z,89.40
2022-09-16T10:18:48.926Z,89.50
2022-09-16T10:21:19.041Z,89.20
2022-09-16T10:23:59.293Z,88.80
2022-09-16T10:26:29.851Z,89.00
2022-09-16T10:29:32.101Z,88.90
2022-09-16T10:32:07.615Z,89.30
2022-09-16T10:34:40.942Z,89.00
2022-09-16T10:37:14.182Z,89.60
2022-09-16T10:39:47.736Z,89.10
2022-09-16T10:42:35.756Z,89.30
2022-09-16T10:45:15.391Z,90.10
2022-09-16T10:47:52.440Z,90.00
2022-09-16T10:50:22.160Z,90.20
2022-09-16T10:52:51.470Z,90.10
2022-09-16T10:55:28.523Z,90.60
2022-09-16T10:58:10.435Z,90.60
2022-09-16T11:00:53.142Z,90.70
2022-09-16T11:03:52.763Z,90.60
2022-09-16T11:07:02.655Z,90.80
2022-09-16T11:09:55.586Z,91.50
2022-09-16T11:12:49.778Z,91.40
2022-09-16T11:16:04.927Z,91.20
2022-09-16T11:18:33.458Z,91.60
2022-09-16T11:21:35.877Z,92.50
2022-09-16T11:24:29.403Z,91.90
2022-09-16T11:27:04.721Z,91.80
2022-09-16T11:29:36.594Z,91.60
2022-09-16T11:32:37.035Z,91.60
2022-09-16T11:35:26.651Z,92.20
2022-09-16T11:38:30.599Z,91.70
2022-09-16T11:41:25.325Z,91.70
2022-09-16T11:44:41.074Z,91.80
2022-09-16T11:47:40.377Z,92.30
2022-09-16T11:50:31.316Z,92.50
2022-09-16T11:53:40.021Z,92.30
2022-09-16T11:56:23.256Z,92.30
2022-09-16T11:59:33.755Z,92.20
2022-09-16T12:02:18.502Z,92.40
2022-09-16T12:05:00.335Z,92.20
2022-09-16T12:08:02.491Z,92.30
2022-09-16T12:10:46.890Z,92.20
2022-09-16T12:13:18.503Z,92.20
2022-09-16T12:15:55.439Z,92.20
2022-09-16T12:18:50.506Z,92.20
2022-09-16T12:21:28.646Z,92.60
2022-09-16T12:24:32.105Z,92.40
2022-09-16T12:27:07.232Z,92.50
2022-09-16T12:30:27.928Z,92.40
2022-09-16T12:33:07.459Z,92.90
2022-09-16T12:35:50.428Z,92.60
2022-09-16T12:38:21.073Z,92.60
2022-09-16T12:40:49.871Z,92.50
2022-09-16T12:43:37.807Z,92.50
2022-09-16T12:46:20.676Z,92.50
2022-09-16T12:49:21.207Z,92.50
2022-09-16T12:52:23.254Z,92.60
2022-09-16T12:55:09.069Z,92.90
2022-09-16T12:57:44.063Z,92.80
2022-09-16T13:00:29.401Z,92.80
2022-09-16T13:03:08.639Z,92.90
2022-09-16T13:05:40.128Z,92.80
2022-09-16T13:08:29.535Z,92.80
2022-09-16T13:11:47.192Z,93.00
2022-09-16T13:14:00.006Z,92.80
2022-09-16T13:16:38.060Z,92.70
2022-09-16T13:19:22.297Z,93.90
2022-09-16T13:21:52.321Z,93.40
2022-09-16T13:24:51.827Z,94.20
2022-09-16T13:27:41.014Z,93.40
2022-09-16T13:30:13.139Z,93.50
2022-09-16T13:32:47.194Z,93.20
2022-09-16T13:35:22.069Z,93.10
2022-09-16T13:37:54.346Z,93.10
2022-09-16T13:40:25.472Z,93.10
2022-09-16T13:43:11.736Z,93.10
2022-09-16T13:45:46.161Z,93.20
2022-09-16T13:48:25.789Z,93.10
2022-09-16T13:51:02.415Z,93.50
2022-09-16T13:53:34.378Z,93.20
2022-09-16T13:56:07.148Z,93.10
2022-09-16T13:58:48.745Z,93.20
2022-09-16T14:01:42.170Z,93.10
2022-09-16T14:04:57.860Z,93.20
2022-09-16T14:07:55.652Z,93.40
2022-09-16T14:10:39.064Z,93.30
2022-09-16T14:13:24.941Z,93.40
2022-09-16T14:15:56.818Z,93.50
2022-09-16T14:18:32.718Z,93.30
2022-09-16T14:21:18.841Z,93.30
2022-09-16T14:23:47.913Z,93.40
2022-09-16T14:26:19.256Z,93.40
2022-09-16T14:28:48.332Z,93.50
2022-09-16T14:31:24.371Z,93.50
2022-09-16T14:34:05.525Z,93.50
2022-09-16T14:36:39.825Z,93.60
2022-09-16T14:39:08.826Z,93.50
2022-09-16T14:41:42.342Z,93.60
2022-09-16T14:44:29.847Z,93.60
2022-09-16T14:47:21.858Z,94.00
2022-09-16T14:50:06.505Z,93.80
2022-09-16T14:52:37.022Z,93.80
2022-09-16T14:55:20.411Z,93.80
2022-09-16T14:57:49.656Z,93.60
2022-09-16T15:00:20.522Z,93.70
2022-09-16T15:02:58.337Z,93.60
2022-09-16T15:05:39.938Z,93.70
2022-09-16T15:08:27.137Z,93.80
2022-09-16T15:11:19.509Z,93.90
2022-09-16T15:13:59.426Z,93.90
2022-09-16T15:16:29.477Z,94.00
2022-09-16T15:19:03.569Z,94.00
2022-09-16T15:21:39.179Z,94.00
2022-09-16T15:24:22.057Z,93.90
2022-09-16T15:26:51.511Z,94.00
2022-09-16T15:29:21.216Z,94.00
2022-09-16T15:31:51.501Z,94.00
2022-09-16T15:34:20.572Z,94.00
2022-09-16T15:36:57.890Z,94.00
2022-09-16T15:39:30.655Z,94.10
2022-09-16T15:42:13.492Z,94.00
2022-09-16T15:45:00.637Z,94.10
2022-09-16T15:47:40.175Z,94.30
2022-09-16T15:50:11.295Z,94.20
2022-09-16T15:53:05.284Z,94.20
2022-09-16T15:56:03.101Z,94.40
2022-09-16T15:58:43.351Z,94.70
2022-09-16T16:01:32.329Z,94.40
2022-09-16T16:04:06.359Z,94.70
2022-09-16T16:06:48.938Z,94.40
2022-09-16T16:09:33.429Z,95.40
2022-09-16T16:12:09.163Z,94.90
2022-09-16T16:14:39.650Z,94.60
2022-09-16T16:17:15.521Z,94.50
2022-09-16T16:19:46.955Z,94.50
2022-09-16T16:22:17.432Z,94.20
2022-09-16T16:24:46.555Z,94.30
2022-09-16T16:27:15.493Z,94.20
2022-09-16T16:29:44.388Z,94.20
2022-09-16T16:32:15.689Z,94.10
2022-09-16T16:34:51.216Z,94.00
2022-09-16T16:37:44.373Z,94.00
2022-09-16T16:40:10.605Z,94.30
2022-09-16T16:42:39.983Z,93.90
2022-09-16T16:45:09.561Z,94.00
2022-09-16T16:47:38.387Z,93.90
2022-09-16T16:50:07.684Z,94.00
2022-09-16T16:52:36.508Z,93.90
2022-09-16T16:55:06.022Z,93.90
2022-09-16T16:57:35.275Z,93.80
2022-09-16T17:00:06.324Z,94.00
2022-09-16T17:02:35.500Z,93.90
2022-09-16T17:05:04.434Z,93.90
2022-09-16T17:07:33.454Z,93.90
2022-09-16T17:10:02.430Z,93.90
2022-09-16T17:12:31.415Z,93.90
2022-09-16T17:15:00.334Z,94.00
2022-09-16T17:17:31.588Z,94.10
2022-09-16T17:20:01.106Z,94.10
2022-09-16T17:22:30.214Z,94.10
2022-09-16T17:24:59.053Z,94.20
2022-09-16T17:27:29.020Z,94.20
2022-09-16T17:29:58.010Z,94.10
2022-09-16T17:32:26.951Z,94.20
2022-09-16T17:34:55.928Z,94.20
2022-09-16T17:37:24.880Z,94.20
2022-09-16T17:39:53.867Z,94.20
2022-09-16T17:42:22.875Z,94.30
2022-09-16T17:44:51.727Z,94.30
2022-09-16T17:47:20.821Z,94.40
2022-09-16T17:49:51.179Z,94.30
2022-09-16T17:52:20.114Z,94.40
2022-09-16T17:54:49.080Z,94.30
2022-09-16T17:57:18.094Z,94.30
2022-09-16T17:59:46.976Z,94.30
2022-09-16T18:02:16.849Z,94.30
2022-09-16T18:04:45.801Z,94.30
2022-09-16T18:07:14.775Z,94.30
2022-09-16T18:09:43.754Z,94.30
2022-09-16T18:12:13.082Z,94.40
2022-09-16T18:14:42.067Z,94.40
2022-09-16T18:17:11.143Z,94.40
2022-09-16T18:19:41.598Z,94.50
2022-09-16T18:22:10.535Z,94.50
2022-09-16T18:24:39.460Z,94.60
2022-09-16T18:27:08.392Z,94.70
2022-09-16T18:29:37.440Z,94.80
2022-09-16T18:32:06.493Z,94.80
2022-09-16T18:34:35.415Z,94.90
2022-09-16T18:37:04.343Z,94.90
2022-09-16T18:39:33.497Z,94.90
2022-09-16T18:42:02.442Z,95.00
2022-09-16T18:44:31.392Z,95.00
2022-09-16T18:47:00.994Z,95.10
2022-09-16T18:49:31.218Z,95.10
2022-09-16T18:52:00.105Z,95.20
2022-09-16T18:54:30.609Z,95.20
2022-09-16T18:57:01.414Z,95.20
2022-09-16T18:59:33.708Z,95.30
2022-09-16T19:02:04.609Z,95.40
2022-09-16T19:04:38.407Z,95.40
2022-09-16T19:07:08.984Z,95.50
2022-09-16T19:09:42.747Z,95.60
2022-09-16T19:12:13.410Z,95.60
2022-09-16T19:14:42.982Z,95.70
2022-09-16T19:17:11.945Z,95.70
2022-09-16T19:19:41.600Z,95.80
2022-09-16T19:22:11.119Z,95.90
2022-09-16T19:24:39.964Z,95.80
2022-09-16T19:27:08.864Z,95.90
2022-09-16T19:29:37.737Z,95.90
2022-09-16T19:32:06.833Z,95.90
2022-09-16T19:34:35.826Z,95.90
2022-09-16T19:37:04.814Z,95.90
2022-09-16T19:39:33.726Z,96.00
2022-09-16T19:42:04.703Z,96.10
2022-09-16T19:44:33.692Z,96.20
2022-09-16T19:47:03.190Z,96.20
2022-09-16T19:49:32.075Z,96.30
2022-09-16T19:52:01.021Z,96.30
2022-09-16T19:54:29.858Z,96.40
2022-09-16T19:56:58.720Z,96.40
2022-09-16T19:59:27.681Z,96.40
2022-09-16T20:01:56.615Z,96.50
2022-09-16T20:04:25.667Z,96.50
2022-09-16T20:06:54.515Z,96.50
2022-09-16T20:09:23.405Z,96.60
2022-09-16T20:11:52.311Z,96.60
2022-09-16T20:14:23.012Z,96.70
2022-09-16T20:16:53.016Z,96.80
2022-09-16T20:19:22.598Z,96.90
2022-09-16T20:21:51.557Z,97.00
2022-09-16T20:24:23.309Z,97.00
2022-09-16T20:26:54.862Z,97.00
2022-09-16T20:29:24.269Z,97.00
2022-09-16T20:31:54.663Z,97.00
2022-09-16T20:34:25.294Z,97.10
2022-09-16T20:36:54.190Z,97.10
2022-09-16T20:39:23.978Z,97.10
2022-09-16T20:41:53.759Z,97.10
2022-09-16T20:44:22.754Z,97.10
2022-09-16T20:46:51.658Z,97.00
2022-09-16T20:49:21.762Z,97.00
2022-09-16T20:51:50.729Z,97.10
2022-09-16T20:54:19.589Z,97.10
2022-09-16T20:56:50.365Z,97.00
2022-09-16T20:59:21.349Z,97.00
2022-09-16T21:01:50.970Z,97.00
2022-09-16T21:04:21.679Z,96.90
2022-09-16T21:06:50.837Z,97.00
2022-09-16T21:09:20.148Z,96.90
2022-09-16T21:11:52.557Z,96.90
2022-09-16T21:14:23.646Z,96.90
2022-09-16T21:16:53.495Z,96.90
2022-09-16T21:19:22.520Z,96.80
2022-09-16T21:21:52.139Z,96.90
2022-09-16T21:24:21.227Z,96.90
2022-09-16T21:26:50.172Z,96.90
2022-09-16T21:29:22.497Z,97.00
2022-09-16T21:31:52.725Z,97.00
2022-09-16T21:34:22.755Z,97.00
2022-09-16T21:36:52.344Z,97.00
2022-09-16T21:39:22.942Z,97.10
2022-09-16T21:41:51.862Z,97.10
2022-09-16T21:44:20.973Z,97.10
2022-09-16T21:46:50.740Z,97.10
2022-09-16T21:49:26.528Z,97.20
2022-09-16T21:51:57.400Z,97.20
2022-09-16T21:54:27.700Z,97.20
2022-09-16T21:56:56.621Z,97.20
2022-09-16T21:59:25.869Z,97.20
2022-09-16T22:01:56.126Z,97.20
2022-09-16T22:04:27.670Z,97.10
2022-09-16T22:06:57.065Z,97.20
2022-09-16T22:09:25.917Z,97.20
2022-09-16T22:11:54.818Z,97.30
2022-09-16T22:14:23.688Z,97.30
2022-09-16T22:16:52.630Z,97.30
2022-09-16T22:19:21.758Z,97.30
2022-09-16T22:21:52.449Z,97.40
2022-09-16T22:24:22.389Z,97.40
2022-09-16T22:26:52.824Z,97.50
2022-09-16T22:29:22.078Z,97.50
2022-09-16T22:31:51.004Z,97.50
2022-09-16T22:34:20.172Z,97.60
2022-09-16T22:36:49.055Z,97.60
2022-09-16T22:39:20.933Z,97.70
2022-09-16T22:41:50.207Z,97.70
2022-09-16T22:44:19.096Z,97.80
2022-09-16T22:46:49.615Z,97.90
2022-09-16T22:49:18.575Z,97.90
2022-09-16T22:51:47.698Z,98.00
2022-09-16T22:54:17.170Z,98.10
2022-09-16T22:56:46.100Z,98.10
2022-09-16T22:59:21.386Z,98.20
2022-09-16T23:01:50.835Z,98.20
2022-09-16T23:04:20.464Z,98.10
2022-09-16T23:06:49.408Z,98.20
2022-09-16T23:09:18.293Z,98.30
2022-09-16T23:11:47.122Z,98.30
2022-09-16T23:14:22.840Z,98.30
2022-09-16T23:16:52.590Z,98.30
2022-09-16T23:19:22.159Z,98.40
2022-09-16T23:21:51.466Z,98.40
2022-09-16T23:24:22.997Z,98.50
2022-09-16T23:26:51.941Z,98.60
2022-09-16T23:29:20.935Z,98.70
2022-09-16T23:31:49.809Z,98.80
2022-09-16T23:34:23.071Z,98.90
2022-09-16T23:36:52.132Z,98.90
2022-09-16T23:39:21.460Z,98.90
2022-09-16T23:41:51.583Z,98.80
2022-09-16T23:44:21.338Z,98.80
2022-09-16T23:46:50.760Z,98.70
2022-09-16T23:49:21.424Z,98.80
2022-09-16T23:51:50.747Z,98.80
2022-09-16T23:54:19.756Z,98.90
2022-09-16T23:56:48.664Z,98.90
2022-09-16T23:59:17.709Z,98.90
